createdAt,value
2023-05-21T00:00:00.071Z,98902.00
2023-05-21T00:02:27.042Z,98905.00
2023-05-21T00:04:53.970Z,98896.00
2023-05-21T00:07:20.873Z,98907.00
2023-05-21T00:09:47.774Z,98897.00
2023-05-21T00:12:14.650Z,98891.00
2023-05-21T00:14:41.617Z,98885.00
2023-05-21T00:17:08.581Z,98889.00
2023-05-21T00:19:35.550Z,98896.00
2023-05-21T00:22:02.500Z,98898.00
2023-05-21T00:24:29.657Z,98895.00
2023-05-21T00:26:56.667Z,98887.00
2023-05-21T00:29:24.086Z,98886.00
2023-05-21T00:31:51.061Z,98895.00
2023-05-21T00:34:18.056Z,98891.00
2023-05-21T00:36:46.252Z,98892.00
2023-05-21T00:39:13.896Z,98887.00
2023-05-21T00:41:40.855Z,98886.00
2023-05-21T00:44:07.754Z,98879.00
2023-05-21T00:46:34.650Z,98886.00
2023-05-21T00:49:01.619Z,98874.00
2023-05-21T00:51:28.507Z,98876.00
2023-05-21T00:53:55.544Z,98886.00
2023-05-21T00:56:24.068Z,98882.00
2023-05-21T00:58:51.382Z,98861.00
2023-05-21T01:01:18.472Z,98859.00
2023-05-21T01:03:45.506Z,98855.00
2023-05-21T01:06:12.544Z,98839.00
2023-05-21T01:08:39.446Z,98864.00
2023-05-21T01:11:07.070Z,98861.00
2023-05-21T01:13:35.969Z,98874.00
2023-05-21T01:16:03.105Z,98863.00
2023-05-21T01:18:30.100Z,98868.00
2023-05-21T01:20:57.096Z,98864.00
2023-05-21T01:23:24.135Z,98870.00
2023-05-21T01:25:51.175Z,98875.00
2023-05-21T01:28:18.096Z,98870.00
2023-05-21T01:30:45.073Z,98864.00
2023-05-21T01:33:40.324Z,98870.00
2023-05-21T01:36:21.449Z,98861.00
2023-05-21T01:39:09.509Z,98855.00
2023-05-21T01:41:38.771Z,98862.00
2023-05-21T01:44:05.646Z,98838.00
2023-05-21T01:46:33.638Z,98846.00
2023-05-21T01:49:00.563Z,98849.00
2023-05-21T01:51:27.500Z,98855.00
2023-05-21T01:53:54.372Z,98855.00
2023-05-21T01:56:21.320Z,98841.00
2023-05-21T01:58:48.180Z,98844.00
2023-05-21T02:01:15.086Z,98850.00
2023-05-21T02:03:42.082Z,98849.00
2023-05-21T02:06:09.058Z,98829.00
2023-05-21T02:08:35.947Z,98837.00
2023-05-21T02:11:02.888Z,98848.00
2023-05-21T02:13:29.853Z,98839.00
2023-05-21T02:15:56.872Z,98841.00
2023-05-21T02:18:23.832Z,98845.00
2023-05-21T02:20:50.921Z,98828.00
2023-05-21T02:23:17.858Z,98831.00
2023-05-21T02:25:44.766Z,98841.00
2023-05-21T02:28:11.684Z,98840.00
2023-05-21T02:30:38.601Z,98835.00
2023-05-21T02:33:05.593Z,98828.00
2023-05-21T02:35:32.632Z,98826.00
2023-05-21T02:37:59.679Z,98827.00
2023-05-21T02:40:26.671Z,98822.00
2023-05-21T02:42:53.584Z,98816.00
2023-05-21T02:45:20.567Z,98825.00
2023-05-21T02:47:47.611Z,98826.00
2023-05-21T02:50:14.655Z,98828.00
2023-05-21T02:52:41.641Z,98811.00
2023-05-21T02:55:09.437Z,98807.00
2023-05-21T02:57:36.360Z,98812.00
2023-05-21T03:00:03.753Z,98811.00
2023-05-21T03:02:30.796Z,98807.00
2023-05-21T03:04:57.793Z,98810.00
2023-05-21T03:07:24.676Z,98804.00
2023-05-21T03:09:51.609Z,98808.00
2023-05-21T03:12:18.555Z,98795.00
2023-05-21T03:14:45.428Z,98798.00
2023-05-21T03:17:12.562Z,98799.00
2023-05-21T03:19:40.576Z,98786.00
2023-05-21T03:22:07.593Z,98781.00
2023-05-21T03:24:34.491Z,98788.00
2023-05-21T03:27:01.444Z,98776.00
2023-05-21T03:29:28.676Z,98787.00
2023-05-21T03:31:55.707Z,98795.00
2023-05-21T03:34:22.777Z,98793.00
2023-05-21T03:36:50.333Z,98785.00
2023-05-21T03:39:17.335Z,98792.00
2023-05-21T03:41:44.313Z,98796.00
2023-05-21T03:44:11.316Z,98795.00
2023-05-21T03:46:38.384Z,98800.00
2023-05-21T03:49:05.379Z,98798.00
2023-05-21T03:51:32.353Z,98779.00
2023-05-21T03:53:59.660Z,98793.00
2023-05-21T03:56:26.551Z,98787.00
2023-05-21T03:58:53.608Z,98795.00
2023-05-21T04:01:20.532Z,98798.00
2023-05-21T04:03:47.672Z,98786.00
2023-05-21T04:06:14.813Z,98797.00
2023-05-21T04:08:41.715Z,98799.00
2023-05-21T04:11:08.683Z,98792.00
2023-05-21T04:13:35.610Z,98803.00
2023-05-21T04:16:02.638Z,98794.00
2023-05-21T04:18:29.541Z,98791.00
2023-05-21T04:20:56.455Z,98806.00
2023-05-21T04:23:23.728Z,98794.00
2023-05-21T04:25:51.153Z,98806.00
2023-05-21T04:28:18.197Z,98800.00
2023-05-21T04:30:45.340Z,98801.00
2023-05-21T04:33:12.259Z,98803.00
2023-05-21T04:35:39.209Z,98816.00
2023-05-21T04:38:06.108Z,98799.00
2023-05-21T04:40:33.092Z,98819.00
2023-05-21T04:43:03.587Z,98822.00
2023-05-21T04:45:30.575Z,98813.00
2023-05-21T04:47:57.511Z,98806.00
2023-05-21T04:50:24.513Z,98815.00
2023-05-21T04:52:51.479Z,98814.00
2023-05-21T04:55:18.490Z,98826.00
2023-05-21T04:57:45.428Z,98826.00
2023-05-21T05:00:13.323Z,98831.00
2023-05-21T05:02:40.371Z,98829.00
2023-05-21T05:05:07.583Z,98841.00
2023-05-21T05:07:34.528Z,98838.00
2023-05-21T05:10:01.460Z,98841.00
2023-05-21T05:12:28.414Z,98842.00
2023-05-21T05:14:55.371Z,98846.00
2023-05-21T05:17:22.343Z,98848.00
2023-05-21T05:19:49.244Z,98840.00
2023-05-21T05:22:16.174Z,98848.00
2023-05-21T05:24:43.075Z,98844.00
2023-05-21T05:27:09.989Z,98841.00
2023-05-21T05:29:36.923Z,98843.00
2023-05-21T05:32:04.152Z,98838.00
2023-05-21T05:34:31.028Z,98830.00
2023-05-21T05:36:57.928Z,98845.00
2023-05-21T05:39:24.857Z,98845.00
2023-05-21T05:41:51.764Z,98845.00
2023-05-21T05:44:18.677Z,98840.00
2023-05-21T05:46:45.596Z,98844.00
2023-05-21T05:49:12.623Z,98840.00
2023-05-21T05:51:40.052Z,98841.00
2023-05-21T05:54:07.005Z,98835.00
2023-05-21T05:56:34.078Z,98842.00
2023-05-21T05:59:00.991Z,98843.00
2023-05-21T06:01:27.879Z,98856.00
2023-05-21T06:03:54.843Z,98846.00
2023-05-21T06:06:21.868Z,98868.00
2023-05-21T06:08:48.926Z,98860.00
2023-05-21T06:11:15.903Z,98850.00
2023-05-21T06:13:43.282Z,98851.00
2023-05-21T06:16:10.369Z,98852.00
2023-05-21T06:18:38.146Z,98840.00
2023-05-21T06:21:05.085Z,98847.00
2023-05-21T06:23:32.045Z,98831.00
2023-05-21T06:25:59.016Z,98829.00
2023-05-21T06:28:25.938Z,98826.00
2023-05-21T06:30:52.888Z,98830.00
2023-05-21T06:33:19.825Z,98826.00
2023-05-21T06:35:46.963Z,98841.00
2023-05-21T06:38:13.907Z,98836.00
2023-05-21T06:40:40.853Z,98846.00
2023-05-21T06:43:07.766Z,98853.00
2023-05-21T06:45:34.963Z,98841.00
2023-05-21T06:48:02.095Z,98842.00
2023-05-21T06:50:29.082Z,98842.00
2023-05-21T06:52:55.980Z,98836.00
2023-05-21T06:55:22.988Z,98837.00
2023-05-21T06:57:49.911Z,98850.00
2023-05-21T07:00:17.079Z,98838.00
2023-05-21T07:02:44.072Z,98834.00
2023-05-21T07:05:11.033Z,98836.00
2023-05-21T07:07:37.956Z,98839.00
2023-05-21T07:10:05.631Z,98845.00
2023-05-21T07:12:32.551Z,98841.00
2023-05-21T07:14:59.527Z,98838.00
2023-05-21T07:17:26.498Z,98851.00
2023-05-21T07:19:54.007Z,98848.00
2023-05-21T07:22:20.929Z,98850.00
2023-05-21T07:24:47.891Z,98842.00
2023-05-21T07:27:25.417Z,98846.00
2023-05-21T07:29:52.939Z,98834.00
2023-05-21T07:32:19.862Z,98830.00
2023-05-21T07:34:46.828Z,98846.00
2023-05-21T07:37:13.850Z,98832.00
2023-05-21T07:39:40.899Z,98829.00
2023-05-21T07:42:07.890Z,98837.00
2023-05-21T07:44:34.831Z,98840.00
2023-05-21T07:47:01.779Z,98836.00
2023-05-21T07:49:28.660Z,98827.00
2023-05-21T07:51:55.726Z,98833.00
2023-05-21T07:54:22.634Z,98829.00
2023-05-21T07:56:49.575Z,98829.00
2023-05-21T07:59:16.871Z,98842.00
2023-05-21T08:01:43.855Z,98839.00
2023-05-21T08:04:10.881Z,98832.00
2023-05-21T08:06:37.885Z,98848.00
2023-05-21T08:09:05.042Z,98835.00
2023-05-21T08:11:31.975Z,98848.00
2023-05-21T08:13:58.936Z,98832.00
2023-05-21T08:16:25.941Z,98846.00
2023-05-21T08:18:53.065Z,98846.00
2023-05-21T08:21:20.042Z,98842.00
2023-05-21T08:23:47.050Z,98838.00
2023-05-21T08:26:13.931Z,98842.00
2023-05-21T08:28:40.883Z,98840.00
2023-05-21T08:31:07.832Z,98850.00
2023-05-21T08:33:37.896Z,98852.00
2023-05-21T08:36:08.118Z,98855.00
2023-05-21T08:38:35.192Z,98846.00
2023-05-21T08:41:02.132Z,98856.00
2023-05-21T08:43:29.525Z,98850.00
2023-05-21T08:45:57.268Z,98854.00
2023-05-21T08:48:24.348Z,98851.00
2023-05-21T08:50:53.099Z,98859.00
2023-05-21T08:53:28.005Z,98858.00
2023-05-21T08:55:56.223Z,98863.00
2023-05-21T08:58:23.253Z,98867.00
2023-05-21T09:00:50.344Z,98851.00
2023-05-21T09:03:17.430Z,98852.00
2023-05-21T09:05:45.279Z,98853.00
2023-05-21T09:08:31.789Z,98862.00
2023-05-21T09:10:58.780Z,98866.00
2023-05-21T09:13:25.800Z,98865.00
2023-05-21T09:15:52.830Z,98863.00
2023-05-21T09:18:19.801Z,98871.00
2023-05-21T09:20:46.737Z,98870.00
2023-05-21T09:23:17.068Z,98873.00
2023-05-21T09:25:48.259Z,98869.00
2023-05-21T09:28:16.449Z,98871.00
2023-05-21T09:30:47.412Z,98867.00
2023-05-21T09:33:28.130Z,98872.00
2023-05-21T09:35:55.200Z,98867.00
2023-05-21T09:38:30.896Z,98879.00
2023-05-21T09:40:58.314Z,98868.00
2023-05-21T09:43:25.612Z,98867.00
2023-05-21T09:45:57.308Z,98871.00
2023-05-21T09:48:42.687Z,98864.00
2023-05-21T09:51:17.115Z,98858.00
2023-05-21T09:53:56.596Z,98864.00
2023-05-21T09:56:28.128Z,98874.00
2023-05-21T09:58:59.387Z,98869.00
2023-05-21T10:01:26.957Z,98870.00
2023-05-21T10:03:56.747Z,98863.00
2023-05-21T10:06:31.194Z,98868.00
2023-05-21T10:08:59.858Z,98870.00
2023-05-21T10:11:30.633Z,98874.00
2023-05-21T10:14:08.231Z,98874.00
2023-05-21T10:16:36.101Z,98881.00
2023-05-21T10:19:03.507Z,98881.00
2023-05-21T10:21:30.650Z,98872.00
2023-05-21T10:23:57.972Z,98882.00
2023-05-21T10:26:25.172Z,98881.00
2023-05-21T10:28:52.197Z,98886.00
2023-05-21T10:31:20.107Z,98894.00
2023-05-21T10:33:47.055Z,98886.00
2023-05-21T10:36:15.668Z,98885.00
2023-05-21T10:38:42.608Z,98881.00
2023-05-21T10:41:09.590Z,98873.00
2023-05-21T10:44:08.082Z,98882.00
2023-05-21T10:47:02.686Z,98877.00
2023-05-21T10:50:24.535Z,98880.00
2023-05-21T10:53:21.652Z,98871.00
2023-05-21T10:56:07.132Z,98869.00
2023-05-21T10:59:24.141Z,98867.00
2023-05-21T11:01:51.621Z,98859.00
2023-05-21T11:04:28.158Z,98857.00
2023-05-21T11:06:55.560Z,98866.00
2023-05-21T11:09:22.806Z,98869.00
2023-05-21T11:11:53.983Z,98875.00
2023-05-21T11:14:36.827Z,98877.00
2023-05-21T11:17:13.295Z,98875.00
2023-05-21T11:19:46.401Z,98874.00
2023-05-21T11:22:23.740Z,98890.00
2023-05-21T11:24:51.720Z,98883.00
2023-05-21T11:27:42.504Z,98883.00
2023-05-21T11:30:17.978Z,98887.00
2023-05-21T11:33:09.930Z,98881.00
2023-05-21T11:35:59.208Z,98875.00
2023-05-21T11:38:30.687Z,98890.00
2023-05-21T11:41:03.210Z,98899.00
2023-05-21T11:43:30.435Z,98892.00
2023-05-21T11:45:57.387Z,98896.00
2023-05-21T11:48:28.915Z,98906.00
2023-05-21T11:50:56.900Z,98910.00
2023-05-21T11:53:23.822Z,98923.00
2023-05-21T11:55:50.776Z,98920.00
2023-05-21T11:58:18.868Z,98914.00
2023-05-21T12:00:45.774Z,98921.00
2023-05-21T12:03:14.552Z,98917.00
2023-05-21T12:05:48.577Z,98917.00
2023-05-21T12:08:25.836Z,98909.00
2023-05-21T12:10:59.472Z,98916.00
2023-05-21T12:13:26.999Z,98903.00
2023-05-21T12:15:56.969Z,98893.00
2023-05-21T12:18:25.441Z,98898.00
2023-05-21T12:20:52.423Z,98890.00
2023-05-21T12:23:25.615Z,98891.00
2023-05-21T12:25:52.572Z,98894.00
2023-05-21T12:28:21.515Z,98893.00
2023-05-21T12:30:48.595Z,98875.00
2023-05-21T12:33:15.539Z,98871.00
2023-05-21T12:35:42.531Z,98878.00
2023-05-21T12:38:11.481Z,98871.00
2023-05-21T12:40:39.623Z,98862.00
2023-05-21T12:43:07.305Z,98860.00
2023-05-21T12:45:34.318Z,98871.00
2023-05-21T12:48:04.694Z,98871.00
2023-05-21T12:50:32.722Z,98864.00
2023-05-21T12:52:59.669Z,98861.00
2023-05-21T12:55:26.564Z,98861.00
2023-05-21T12:58:04.251Z,98868.00
2023-05-21T13:00:32.352Z,98867.00
2023-05-21T13:02:59.288Z,98873.00
2023-05-21T13:05:26.321Z,98869.00
2023-05-21T13:07:53.261Z,98869.00
2023-05-21T13:10:20.218Z,98875.00
2023-05-21T13:12:47.206Z,98865.00
2023-05-21T13:15:14.522Z,98859.00
2023-05-21T13:17:41.545Z,98859.00
2023-05-21T13:20:09.567Z,98849.00
2023-05-21T13:22:47.190Z,98859.00
2023-05-21T13:25:18.354Z,98866.00
2023-05-21T13:27:45.293Z,98873.00
2023-05-21T13:30:12.440Z,98859.00
2023-05-21T13:32:40.285Z,98866.00
2023-05-21T13:35:07.719Z,98854.00
2023-05-21T13:37:34.908Z,98862.00
2023-05-21T13:40:06.167Z,98869.00
2023-05-21T13:42:34.160Z,98866.00
2023-05-21T13:45:01.138Z,98859.00
2023-05-21T13:47:28.108Z,98863.00
2023-05-21T13:49:55.146Z,98857.00
2023-05-21T13:52:22.028Z,98851.00
2023-05-21T13:54:48.966Z,98854.00
2023-05-21T13:57:15.968Z,98850.00
2023-05-21T13:59:42.984Z,98846.00
2023-05-21T14:02:10.307Z,98850.00
2023-05-21T14:04:39.277Z,98859.00
2023-05-21T14:07:06.843Z,98866.00
2023-05-21T14:09:33.958Z,98870.00
2023-05-21T14:12:00.917Z,98865.00
2023-05-21T14:14:27.796Z,98865.00
2023-05-21T14:16:55.010Z,98857.00
2023-05-21T14:19:22.076Z,98864.00
2023-05-21T14:21:51.768Z,98845.00
2023-05-21T14:24:19.291Z,98851.00
2023-05-21T14:26:46.238Z,98844.00
2023-05-21T14:29:14.299Z,98848.00
2023-05-21T14:31:41.264Z,98855.00
2023-05-21T14:34:08.235Z,98851.00
2023-05-21T14:36:35.368Z,98862.00
2023-05-21T14:39:02.370Z,98859.00
2023-05-21T14:41:29.599Z,98870.00
2023-05-21T14:43:56.541Z,98871.00
2023-05-21T14:46:23.484Z,98868.00
2023-05-21T14:48:50.482Z,98867.00
2023-05-21T14:51:17.382Z,98864.00
2023-05-21T14:53:44.273Z,98866.00
2023-05-21T14:56:11.238Z,98868.00
2023-05-21T14:58:38.206Z,98862.00
2023-05-21T15:01:05.316Z,98867.00
2023-05-21T15:03:32.346Z,98868.00
2023-05-21T15:05:59.288Z,98862.00
2023-05-21T15:08:26.298Z,98857.00
2023-05-21T15:10:53.245Z,98858.00
2023-05-21T15:13:20.161Z,98861.00
2023-05-21T15:15:47.103Z,98855.00
2023-05-21T15:18:14.046Z,98850.00
2023-05-21T15:20:41.028Z,98847.00
2023-05-21T15:23:16.643Z,98859.00
2023-05-21T15:25:45.183Z,98854.00
2023-05-21T15:28:12.458Z,98857.00
2023-05-21T15:30:39.999Z,98848.00
2023-05-21T15:33:06.962Z,98860.00
2023-05-21T15:35:36.241Z,98858.00
2023-05-21T15:38:03.661Z,98859.00
2023-05-21T15:40:31.945Z,98860.00
2023-05-21T15:42:58.920Z,98844.00
2023-05-21T15:45:25.878Z,98840.00
2023-05-21T15:47:52.979Z,98842.00
2023-05-21T15:50:19.984Z,98848.00
2023-05-21T15:52:46.880Z,98846.00
2023-05-21T15:55:13.769Z,98836.00
2023-05-21T15:57:40.749Z,98845.00
2023-05-21T16:00:09.508Z,98842.00
2023-05-21T16:02:36.620Z,98841.00
2023-05-21T16:05:03.868Z,98839.00
2023-05-21T16:07:30.865Z,98832.00
2023-05-21T16:09:57.949Z,98839.00
2023-05-21T16:12:24.963Z,98836.00
2023-05-21T16:14:51.954Z,98832.00
2023-05-21T16:17:19.013Z,98826.00
2023-05-21T16:19:45.947Z,98832.00
2023-05-21T16:22:12.944Z,98814.00
2023-05-21T16:24:39.890Z,98818.00
2023-05-21T16:27:06.815Z,98810.00
2023-05-21T16:29:33.676Z,98807.00
2023-05-21T16:32:00.712Z,98803.00
2023-05-21T16:34:27.730Z,98791.00
2023-05-21T16:36:54.757Z,98799.00
2023-05-21T16:39:21.693Z,98793.00
2023-05-21T16:41:48.642Z,98788.00
2023-05-21T16:44:15.621Z,98788.00
2023-05-21T16:46:42.758Z,98793.00
2023-05-21T16:49:09.726Z,98791.00
2023-05-21T16:51:36.690Z,98783.00
2023-05-21T16:54:03.708Z,98792.00
2023-05-21T16:56:31.298Z,98788.00
2023-05-21T16:58:58.265Z,98785.00
2023-05-21T17:01:25.369Z,98794.00
2023-05-21T17:03:52.804Z,98796.00
2023-05-21T17:06:19.898Z,98808.00
2023-05-21T17:08:47.086Z,98799.00
2023-05-21T17:11:14.033Z,98798.00
2023-05-21T17:13:41.003Z,98787.00
2023-05-21T17:16:08.028Z,98786.00
2023-05-21T17:18:35.030Z,98793.00
2023-05-21T17:21:01.947Z,98797.00
2023-05-21T17:23:28.905Z,98798.00
2023-05-21T17:25:55.863Z,98795.00
2023-05-21T17:28:22.931Z,98802.00
2023-05-21T17:30:50.019Z,98795.00
2023-05-21T17:33:17.031Z,98805.00
2023-05-21T17:35:44.084Z,98801.00
2023-05-21T17:38:11.082Z,98786.00
2023-05-21T17:40:38.070Z,98795.00
2023-05-21T17:43:05.248Z,98803.00
2023-05-21T17:45:32.303Z,98794.00
2023-05-21T17:48:00.557Z,98807.00
2023-05-21T17:50:27.943Z,98799.00
2023-05-21T17:52:54.898Z,98812.00
2023-05-21T17:55:21.840Z,98816.00
2023-05-21T17:57:48.766Z,98808.00
2023-05-21T18:00:15.973Z,98805.00
2023-05-21T18:02:43.005Z,98811.00
2023-05-21T18:05:09.997Z,98822.00
2023-05-21T18:07:38.108Z,98821.00
2023-05-21T18:10:06.399Z,98819.00
2023-05-21T18:12:33.304Z,98809.00
2023-05-21T18:15:00.274Z,98821.00
2023-05-21T18:17:27.183Z,98814.00
2023-05-21T18:19:54.096Z,98818.00
2023-05-21T18:22:20.976Z,98800.00
2023-05-21T18:24:47.938Z,98816.00
2023-05-21T18:27:14.916Z,98816.00
2023-05-21T18:29:41.861Z,98796.00
2023-05-21T18:32:09.023Z,98816.00
2023-05-21T18:34:35.916Z,98822.00
2023-05-21T18:37:02.913Z,98819.00
2023-05-21T18:39:29.842Z,98833.00
2023-05-21T18:44:26.602Z,98825.00
2023-05-21T18:46:55.137Z,98819.00
2023-05-21T18:49:23.309Z,98820.00
2023-05-21T18:51:50.277Z,98826.00
2023-05-21T18:54:17.248Z,98831.00
2023-05-21T18:56:44.300Z,98835.00
2023-05-21T18:59:11.293Z,98818.00
2023-05-21T19:01:38.316Z,98831.00
2023-05-21T19:04:05.453Z,98831.00
2023-05-21T19:06:32.403Z,98830.00
2023-05-21T19:08:59.341Z,98826.00
2023-05-21T19:11:26.917Z,98837.00
2023-05-21T19:13:53.905Z,98846.00
2023-05-21T19:16:20.885Z,98853.00
2023-05-21T19:18:47.824Z,98860.00
2023-05-21T19:21:14.804Z,98856.00
2023-05-21T19:23:52.102Z,98859.00
2023-05-21T19:26:21.608Z,98862.00
2023-05-21T19:28:48.597Z,98850.00
2023-05-21T19:31:15.550Z,98867.00
2023-05-21T19:33:42.585Z,98850.00
2023-05-21T19:36:09.590Z,98868.00
2023-05-21T19:38:36.495Z,98879.00
2023-05-21T19:41:03.414Z,98872.00
2023-05-21T19:43:30.356Z,98875.00
2023-05-21T19:45:57.290Z,98883.00
2023-05-21T19:48:24.241Z,98887.00
2023-05-21T19:50:51.197Z,98867.00
2023-05-21T19:53:18.146Z,98869.00
2023-05-21T19:55:45.089Z,98883.00
2023-05-21T19:58:12.034Z,98875.00
2023-05-21T20:00:39.053Z,98886.00
2023-05-21T20:03:06.113Z,98879.00
2023-05-21T20:05:33.008Z,98874.00
2023-05-21T20:08:00.006Z,98873.00
2023-05-21T20:10:26.943Z,98867.00
2023-05-21T20:12:53.854Z,98882.00
2023-05-21T20:15:20.834Z,98887.00
2023-05-21T20:17:47.787Z,98879.00
2023-05-21T20:20:14.832Z,98880.00
2023-05-21T20:22:41.763Z,98877.00
2023-05-21T20:25:09.216Z,98877.00
2023-05-21T20:27:36.263Z,98876.00
2023-05-21T20:30:03.400Z,98869.00
2023-05-21T20:32:30.404Z,98864.00
2023-05-21T20:35:03.487Z,98871.00
2023-05-21T20:37:31.234Z,98866.00
2023-05-21T20:39:58.421Z,98884.00
2023-05-21T20:42:26.442Z,98871.00
2023-05-21T20:44:53.352Z,98868.00
2023-05-21T20:47:20.292Z,98874.00
2023-05-21T20:49:47.604Z,98886.00
2023-05-21T20:52:14.892Z,98877.00
2023-05-21T20:54:41.817Z,98887.00
2023-05-21T20:57:08.747Z,98876.00
2023-05-21T20:59:35.688Z,98879.00
2023-05-21T21:02:02.627Z,98895.00
2023-05-21T21:04:29.568Z,98897.00
2023-05-21T21:06:56.450Z,98906.00
2023-05-21T21:09:23.454Z,98899.00
2023-05-21T21:11:50.412Z,98909.00
2023-05-21T21:14:17.402Z,98913.00
2023-05-21T21:16:44.365Z,98904.00
2023-05-21T21:19:11.386Z,98902.00
2023-05-21T21:21:38.416Z,98902.00
2023-05-21T21:24:06.135Z,98905.00
2023-05-21T21:26:33.039Z,98910.00
2023-05-21T21:28:59.937Z,98903.00
2023-05-21T21:31:26.904Z,98882.00
2023-05-21T21:33:54.264Z,98884.00
2023-05-21T21:36:21.286Z,98880.00
2023-05-21T21:38:48.274Z,98887.00
2023-05-21T21:41:15.325Z,98892.00
2023-05-21T21:43:42.278Z,98886.00
2023-05-21T21:46:09.383Z,98881.00
2023-05-21T21:48:36.356Z,98894.00
2023-05-21T21:51:03.384Z,98884.00
2023-05-21T21:53:30.347Z,98889.00
2023-05-21T21:55:57.331Z,98889.00
2023-05-21T21:58:24.225Z,98890.00
2023-05-21T22:00:51.248Z,98896.00
2023-05-21T22:03:18.210Z,98856.00
2023-05-21T22:05:45.326Z,98879.00
2023-05-21T22:08:12.262Z,98874.00
2023-05-21T22:10:39.531Z,98881.00
2023-05-21T22:13:06.651Z,98888.00
2023-05-21T22:15:33.572Z,98882.00
2023-05-21T22:18:01.097Z,98889.00
2023-05-21T22:20:28.780Z,98885.00
2023-05-21T22:22:56.915Z,98901.00
2023-05-21T22:28:59.602Z,98894.00
2023-05-21T22:31:26.666Z,98888.00
2023-05-21T22:33:53.681Z,98886.00
2023-05-21T22:36:20.680Z,98881.00
2023-05-21T22:38:47.632Z,98882.00
2023-05-21T22:41:17.617Z,98879.00
2023-05-21T22:43:44.512Z,98874.00
2023-05-21T22:46:11.442Z,98893.00
2023-05-21T22:48:38.464Z,98885.00
2023-05-21T22:51:05.488Z,98887.00
2023-05-21T22:53:33.339Z,98871.00
2023-05-21T22:56:00.909Z,98881.00
2023-05-21T22:58:27.922Z,98872.00
2023-05-21T23:00:54.853Z,98864.00
2023-05-21T23:03:21.856Z,98874.00
2023-05-21T23:05:49.009Z,98891.00
2023-05-21T23:08:16.028Z,98874.00
2023-05-21T23:10:43.019Z,98883.00
2023-05-21T23:13:10.064Z,98889.00
2023-05-21T23:15:36.993Z,98881.00
2023-05-21T23:18:04.211Z,98867.00
2023-05-21T23:20:31.778Z,98871.00
2023-05-21T23:22:58.770Z,98889.00
2023-05-21T23:25:25.687Z,98893.00
2023-05-21T23:27:52.605Z,98884.00
2023-05-21T23:30:19.542Z,98885.00
2023-05-21T23:32:46.582Z,98881.00
2023-05-21T23:35:13.643Z,98874.00
2023-05-21T23:37:40.591Z,98885.00
2023-05-21T23:40:08.622Z,98874.00
2023-05-21T23:42:36.005Z,98881.00
2023-05-21T23:45:03.510Z,98871.00
2023-05-21T23:47:30.685Z,98879.00
2023-05-21T23:49:57.655Z,98883.00
2023-05-21T23:52:24.578Z,98876.00
2023-05-21T23:54:51.541Z,98867.00
2023-05-21T23:57:18.514Z,98872.00
2023-05-21T23:59:45.628Z,98864.00
